createdAt,value
2022-08-25T00:02:00.741Z,161758.56
2022-08-25T00:04:31.197Z,161770.66
2022-08-25T00:07:03.522Z,161777.34
2022-08-25T00:09:32.869Z,161790.75
2022-08-25T00:12:00.751Z,161801.50
2022-08-25T00:14:32.793Z,161810.88
2022-08-25T00:17:00.256Z,161784.06
2022-08-25T00:19:32.148Z,161805.56
2022-08-25T00:22:01.035Z,161801.50
2022-08-25T00:24:29.672Z,161820.31
2022-08-25T00:26:58.339Z,161813.59
2022-08-25T00:29:27.086Z,161827.03
2022-08-25T00:31:55.994Z,161824.31
2022-08-25T00:34:33.055Z,161824.31
2022-08-25T00:37:01.400Z,161825.66
2022-08-25T00:39:28.832Z,161816.28
2022-08-25T00:41:57.881Z,161820.31
2022-08-25T00:44:27.926Z,161831.03
2022-08-25T00:46:58.081Z,161836.41
2022-08-25T00:49:42.812Z,161841.81
2022-08-25T00:52:24.635Z,161840.41
2022-08-25T00:55:09.360Z,161825.66
2022-08-25T00:57:41.353Z,161829.69
2022-08-25T01:00:26.014Z,161833.75
2022-08-25T01:02:54.469Z,161839.09
2022-08-25T01:05:22.244Z,161821.66
2022-08-25T01:07:50.691Z,161829.69
2022-08-25T01:10:20.481Z,161812.28
2022-08-25T01:12:49.022Z,161818.94
2022-08-25T01:15:16.903Z,161824.31
2022-08-25T01:17:47.649Z,161833.75
2022-08-25T01:20:16.582Z,161835.09
2022-08-25T01:22:43.781Z,161847.13
2022-08-25T01:25:42.459Z,161845.81
2022-08-25T01:28:09.983Z,161855.22
2022-08-25T01:30:38.299Z,161851.19
2022-08-25T01:33:07.610Z,161853.84
2022-08-25T01:35:36.170Z,161847.13
2022-08-25T01:38:05.875Z,161857.91
2022-08-25T01:40:33.734Z,161865.94
2022-08-25T01:43:06.972Z,161879.38
2022-08-25T01:45:35.576Z,161888.78
2022-08-25T01:48:03.478Z,161880.72
2022-08-25T01:50:32.000Z,161883.44
2022-08-25T01:53:27.588Z,161898.19
2022-08-25T01:56:09.579Z,161894.16
2022-08-25T01:58:40.321Z,161910.25
2022-08-25T02:01:12.800Z,161911.63
2022-08-25T02:03:42.540Z,161915.63
2022-08-25T02:06:13.025Z,161925.03
2022-08-25T02:08:41.077Z,161929.06
2022-08-25T02:11:13.878Z,161923.69
2022-08-25T02:13:42.344Z,161939.84
2022-08-25T02:16:11.335Z,161951.88
2022-08-25T02:18:38.669Z,161955.94
2022-08-25T02:21:06.308Z,161965.38
2022-08-25T02:23:33.830Z,161974.75
2022-08-25T02:26:01.311Z,161970.75
2022-08-25T02:28:28.696Z,161994.91
2022-08-25T02:31:01.067Z,161990.91
2022-08-25T02:33:29.404Z,161994.91
2022-08-25T02:36:00.794Z,161998.97
2022-08-25T02:38:29.373Z,161996.25
2022-08-25T02:40:57.755Z,161997.63
2022-08-25T02:43:26.309Z,162005.69
2022-08-25T02:45:55.654Z,161998.97
2022-08-25T02:48:23.604Z,162009.69
2022-08-25T02:50:53.072Z,162017.75
2022-08-25T02:53:21.228Z,162020.47
2022-08-25T02:55:48.566Z,162013.75
2022-08-25T02:58:16.070Z,162011.06
2022-08-25T03:00:43.889Z,162015.06
2022-08-25T03:03:11.239Z,162016.41
2022-08-25T03:05:38.724Z,162025.84
2022-08-25T03:08:08.113Z,162031.19
2022-08-25T03:10:35.761Z,162031.19
2022-08-25T03:13:03.600Z,162037.91
2022-08-25T03:15:31.597Z,162021.78
2022-08-25T03:18:00.018Z,162040.63
2022-08-25T03:20:28.663Z,162024.47
2022-08-25T03:22:56.483Z,162025.84
2022-08-25T03:25:49.961Z,162015.06
2022-08-25T03:28:17.773Z,162021.78
2022-08-25T03:30:45.413Z,162021.78
2022-08-25T03:33:12.769Z,162041.94
2022-08-25T03:35:41.439Z,162017.75
2022-08-25T03:38:08.723Z,162013.75
2022-08-25T03:40:36.059Z,162004.34
2022-08-25T03:43:03.804Z,162005.69
2022-08-25T03:45:31.629Z,162007.03
2022-08-25T03:47:59.498Z,162009.69
2022-08-25T03:50:27.170Z,162001.63
2022-08-25T03:52:56.321Z,161993.59
2022-08-25T03:55:25.660Z,162001.63
2022-08-25T03:57:54.508Z,161992.25
2022-08-25T04:00:23.843Z,161993.59
2022-08-25T04:02:51.311Z,161992.25
2022-08-25T04:05:20.353Z,162001.63
2022-08-25T04:07:47.700Z,162001.63
2022-08-25T04:10:15.579Z,161978.81
2022-08-25T04:12:43.250Z,161998.97
2022-08-25T04:15:11.141Z,161992.25
2022-08-25T04:17:40.231Z,162008.34
2022-08-25T04:20:10.134Z,161996.25
2022-08-25T04:22:41.509Z,162004.34
2022-08-25T04:25:12.953Z,161974.75
2022-08-25T04:27:40.766Z,161947.88
2022-08-25T04:30:08.669Z,161960.00
2022-08-25T04:32:37.163Z,161942.50
2022-08-25T04:35:05.539Z,161931.72
2022-08-25T04:37:33.556Z,161923.69
2022-08-25T04:40:01.039Z,161919.69
2022-08-25T04:42:28.682Z,161929.06
2022-08-25T04:44:56.282Z,161933.13
2022-08-25T04:47:24.150Z,161930.41
2022-08-25T04:49:51.434Z,161953.22
2022-08-25T04:52:18.699Z,161951.88
2022-08-25T04:54:46.969Z,161962.72
2022-08-25T04:57:14.304Z,161965.38
2022-08-25T04:59:41.664Z,161978.81
2022-08-25T05:02:10.114Z,161994.91
2022-08-25T05:04:38.295Z,162004.34
2022-08-25T05:07:05.860Z,162013.75
2022-08-25T05:09:34.023Z,162031.19
2022-08-25T05:12:02.914Z,162035.22
2022-08-25T05:14:32.463Z,162063.44
2022-08-25T05:17:00.413Z,162066.09
2022-08-25T05:19:27.924Z,162090.31
2022-08-25T05:21:57.794Z,162107.75
2022-08-25T05:24:26.850Z,162121.19
2022-08-25T05:26:54.404Z,162121.19
2022-08-25T05:29:21.928Z,162149.41
2022-08-25T05:31:50.946Z,162165.53
2022-08-25T05:34:19.761Z,162183.06
2022-08-25T05:36:48.238Z,162212.63
2022-08-25T05:39:15.793Z,162227.41
2022-08-25T05:41:43.202Z,162299.97
2022-08-25T05:44:12.561Z,162380.66
2022-08-25T05:46:40.202Z,162470.75
2022-08-25T05:49:07.760Z,162550.13
2022-08-25T05:51:34.972Z,162648.31
2022-08-25T05:54:03.768Z,162737.09
2022-08-25T05:56:31.505Z,162820.59
2022-08-25T05:58:58.949Z,162903.97
2022-08-25T06:01:47.318Z,162968.56
2022-08-25T06:04:16.729Z,162940.31
2022-08-25T06:06:44.307Z,162971.31
2022-08-25T06:09:12.455Z,163002.28
2022-08-25T06:11:40.999Z,162996.91
2022-08-25T06:14:10.142Z,163080.38
2022-08-25T06:16:39.270Z,163056.16
2022-08-25T06:19:08.716Z,163081.69
2022-08-25T06:21:39.205Z,163054.81
2022-08-25T06:24:12.049Z,163068.25
2022-08-25T06:26:42.530Z,163041.34
2022-08-25T06:29:09.929Z,163002.28
2022-08-25T06:31:37.401Z,163018.44
2022-08-25T06:34:06.267Z,163018.44
2022-08-25T06:36:34.842Z,163005.00
2022-08-25T06:39:02.259Z,163027.88
2022-08-25T06:41:36.928Z,163062.88
2022-08-25T06:44:05.818Z,163056.16
2022-08-25T06:46:36.516Z,163031.91
2022-08-25T06:49:07.345Z,163018.44
2022-08-25T06:51:38.428Z,163031.91
2022-08-25T06:54:07.648Z,163046.69
2022-08-25T06:56:34.827Z,163025.16
2022-08-25T06:59:06.051Z,163060.16
2022-08-25T07:01:35.183Z,163058.81
2022-08-25T07:04:07.560Z,163080.38
2022-08-25T07:06:38.077Z,163108.63
2022-08-25T07:09:07.299Z,163143.66
2022-08-25T07:11:34.892Z,163158.47
2022-08-25T07:14:04.716Z,163205.66
2022-08-25T07:16:32.825Z,163224.47
2022-08-25T07:19:01.234Z,163232.59
2022-08-25T07:21:33.592Z,163251.41
2022-08-25T07:24:06.862Z,163229.88
2022-08-25T07:26:38.588Z,163240.66
2022-08-25T07:29:13.318Z,163247.41
2022-08-25T07:31:41.159Z,163246.03
2022-08-25T07:34:28.380Z,163233.94
2022-08-25T07:36:57.482Z,163239.34
2022-08-25T07:39:26.472Z,163343.00
2022-08-25T07:41:55.194Z,163441.41
2022-08-25T07:44:23.199Z,163514.16
2022-08-25T07:46:51.729Z,163531.75
2022-08-25T07:49:23.520Z,163550.56
2022-08-25T07:52:05.202Z,163584.28
2022-08-25T07:54:38.051Z,163654.34
2022-08-25T07:57:08.648Z,163809.44
2022-08-25T07:59:40.886Z,163860.66
2022-08-25T08:02:17.824Z,163911.94
2022-08-25T08:04:49.859Z,163969.91
2022-08-25T08:07:20.040Z,164065.75
2022-08-25T08:09:53.104Z,164154.75
2022-08-25T08:12:25.032Z,164138.59
2022-08-25T08:14:52.724Z,164134.50
2022-08-25T08:17:21.116Z,164176.34
2022-08-25T08:19:49.029Z,164189.84
2022-08-25T08:22:16.438Z,164245.22
2022-08-25T08:24:54.834Z,164280.31
2022-08-25T08:27:24.675Z,164277.56
2022-08-25T08:29:53.795Z,164323.47
2022-08-25T08:32:21.453Z,164336.97
2022-08-25T08:34:53.188Z,164328.88
2022-08-25T08:37:23.052Z,164318.06
2022-08-25T08:39:52.630Z,164372.13
2022-08-25T08:42:47.063Z,164405.81
2022-08-25T08:45:49.665Z,164316.72
2022-08-25T08:48:24.455Z,164374.81
2022-08-25T08:51:26.439Z,164380.22
2022-08-25T08:54:15.562Z,164399.06
2022-08-25T08:56:48.163Z,164416.66
2022-08-25T08:59:19.327Z,164494.94
2022-08-25T09:01:52.496Z,164411.22
2022-08-25T09:04:39.387Z,164450.41
2022-08-25T09:07:20.783Z,164446.31
2022-08-25T09:09:49.061Z,164365.38
2022-08-25T09:12:25.579Z,164407.22
2022-08-25T09:15:54.665Z,164407.22
2022-08-25T09:18:57.806Z,164411.22
2022-08-25T09:21:28.470Z,164459.84
2022-08-25T09:23:59.569Z,164486.84
2022-08-25T09:26:34.318Z,164476.00
2022-08-25T09:29:06.530Z,164481.44
2022-08-25T09:31:45.308Z,164436.91
2022-08-25T09:34:25.250Z,164419.31
2022-08-25T09:36:53.369Z,164445.00
2022-08-25T09:39:21.381Z,164454.41
2022-08-25T09:41:54.129Z,164504.38
2022-08-25T09:44:27.423Z,164539.50
2022-08-25T09:47:02.367Z,164536.84
2022-08-25T09:49:43.133Z,164557.09
2022-08-25T09:52:29.184Z,164505.69
2022-08-25T09:55:00.090Z,164528.75
2022-08-25T09:57:32.462Z,164582.72
2022-08-25T10:00:20.167Z,164534.09
2022-08-25T10:03:13.282Z,164625.91
2022-08-25T10:06:20.509Z,164696.19
2022-08-25T10:08:48.461Z,164736.72
2022-08-25T10:11:38.491Z,164727.22
2022-08-25T10:14:21.090Z,164604.31
2022-08-25T10:16:50.235Z,164650.25
2022-08-25T10:19:30.285Z,164634.00
2022-08-25T10:22:07.658Z,164686.75
2022-08-25T10:24:35.623Z,164712.38
2022-08-25T10:27:40.772Z,164658.34
2022-08-25T10:30:11.259Z,164654.28
2022-08-25T10:32:57.181Z,164690.78
2022-08-25T10:35:32.902Z,164721.88
2022-08-25T10:38:21.745Z,164742.13
2022-08-25T10:41:27.164Z,164754.25
2022-08-25T10:44:27.892Z,164775.84
2022-08-25T10:47:03.240Z,164798.84
2022-08-25T10:49:46.801Z,164797.47
2022-08-25T10:52:23.435Z,164816.44
2022-08-25T10:55:02.435Z,164751.56
2022-08-25T10:57:39.130Z,164769.09
2022-08-25T11:00:22.689Z,164820.50
2022-08-25T11:03:11.021Z,164812.38
2022-08-25T11:06:04.611Z,164852.91
2022-08-25T11:08:40.191Z,164835.38
2022-08-25T11:11:21.785Z,164802.88
2022-08-25T11:14:05.712Z,164797.47
2022-08-25T11:16:46.812Z,164842.13
2022-08-25T11:19:24.238Z,164915.06
2022-08-25T11:22:12.208Z,164974.53
2022-08-25T11:24:40.667Z,165002.91
2022-08-25T11:27:14.644Z,165006.97
2022-08-25T11:29:53.448Z,165021.84
2022-08-25T11:32:24.828Z,165047.47
2022-08-25T11:34:53.488Z,165074.50
2022-08-25T11:37:26.935Z,165071.81
2022-08-25T11:39:57.533Z,165104.28
2022-08-25T11:42:48.520Z,165119.13
2022-08-25T11:45:22.111Z,165135.38
2022-08-25T11:47:59.518Z,165120.53
2022-08-25T11:50:30.074Z,165052.88
2022-08-25T11:53:01.453Z,165058.31
2022-08-25T11:55:35.178Z,165056.97
2022-08-25T11:58:53.263Z,165061.00
2022-08-25T12:01:40.093Z,165043.44
2022-08-25T12:04:37.812Z,165039.38
2022-08-25T12:07:20.131Z,165039.38
2022-08-25T12:09:50.574Z,165058.31
2022-08-25T12:12:48.879Z,165075.84
2022-08-25T12:15:19.752Z,165115.09
2022-08-25T12:18:09.024Z,165131.31
2022-08-25T12:20:55.549Z,165115.09
2022-08-25T12:23:44.990Z,165093.44
2022-08-25T12:26:36.931Z,165101.59
2022-08-25T12:29:25.960Z,165119.13
2022-08-25T12:32:38.790Z,165115.09
2022-08-25T12:35:32.333Z,165100.25
2022-08-25T12:38:04.984Z,165108.34
2022-08-25T12:40:37.358Z,165113.78
2022-08-25T12:43:10.509Z,165134.06
2022-08-25T12:45:41.263Z,165135.38
2022-08-25T12:48:43.760Z,165157.00
2022-08-25T12:51:36.051Z,165165.13
2022-08-25T12:54:41.264Z,165162.38
2022-08-25T12:57:42.274Z,165127.28
2022-08-25T13:00:22.720Z,165077.25
2022-08-25T13:03:10.796Z,165085.34
2022-08-25T13:06:01.810Z,165109.69
2022-08-25T13:08:48.644Z,165128.63
2022-08-25T13:11:35.521Z,165140.75
2022-08-25T13:14:26.764Z,165129.97
2022-08-25T13:17:01.411Z,165116.44
2022-08-25T13:19:35.303Z,165116.44
2022-08-25T13:22:16.104Z,165159.69
2022-08-25T13:24:47.461Z,165150.25
2022-08-25T13:27:30.567Z,165083.94
2022-08-25T13:30:03.803Z,165046.13
2022-08-25T13:32:35.275Z,165025.84
2022-08-25T13:35:20.403Z,165025.84
2022-08-25T13:37:48.939Z,165019.09
2022-08-25T13:40:43.331Z,165009.66
2022-08-25T13:43:14.269Z,165039.38
2022-08-25T13:45:47.768Z,165055.63
2022-08-25T13:48:39.453Z,165062.34
2022-08-25T13:51:21.516Z,165081.25
2022-08-25T13:53:54.517Z,165085.34
2022-08-25T13:56:25.779Z,165101.59
2022-08-25T13:58:54.342Z,165090.72
2022-08-25T14:01:48.216Z,165086.69
2022-08-25T14:04:39.022Z,165059.66
2022-08-25T14:07:21.216Z,165020.50
2022-08-25T14:10:04.459Z,165004.25
2022-08-25T14:12:37.739Z,165005.63
2022-08-25T14:15:18.605Z,164996.16
2022-08-25T14:18:08.394Z,164998.88
2022-08-25T14:20:37.327Z,165000.22
2022-08-25T14:23:12.907Z,164971.84
2022-08-25T14:25:47.286Z,164955.59
2022-08-25T14:28:19.905Z,164963.75
2022-08-25T14:30:51.676Z,164947.44
2022-08-25T14:33:23.726Z,164948.84
2022-08-25T14:35:53.764Z,164936.66
2022-08-25T14:38:22.959Z,164939.34
2022-08-25T14:40:51.221Z,164931.25
2022-08-25T14:43:23.858Z,164901.53
2022-08-25T14:45:57.914Z,164925.84
2022-08-25T14:48:29.670Z,164900.19
2022-08-25T14:50:59.193Z,164909.63
2022-08-25T14:53:27.854Z,164925.84
2022-08-25T14:55:58.848Z,164915.06
2022-08-25T14:58:28.000Z,164913.72
2022-08-25T15:01:03.289Z,164902.88
2022-08-25T15:03:33.496Z,164901.53
2022-08-25T15:06:01.465Z,164901.53
2022-08-25T15:08:47.588Z,164908.28
2022-08-25T15:11:15.233Z,164863.72
2022-08-25T15:13:49.370Z,164828.63
2022-08-25T15:16:35.071Z,164821.84
2022-08-25T15:19:06.976Z,164828.63
2022-08-25T15:21:36.277Z,164829.94
2022-08-25T15:24:05.675Z,164842.13
2022-08-25T15:26:36.218Z,164842.13
2022-08-25T15:29:04.050Z,164828.63
2022-08-25T15:31:31.915Z,164815.09
2022-08-25T15:34:00.731Z,164808.28
2022-08-25T15:36:28.470Z,164782.59
2022-08-25T15:38:56.125Z,164782.59
2022-08-25T15:41:27.755Z,164758.31
2022-08-25T15:43:56.848Z,164762.34
2022-08-25T15:46:25.891Z,164736.72
2022-08-25T15:51:20.995Z,164727.22
2022-08-25T15:53:48.939Z,164716.44
2022-08-25T15:56:26.417Z,164693.50
2022-08-25T15:58:55.732Z,164669.16
2022-08-25T16:01:25.886Z,164671.91
2022-08-25T16:03:54.370Z,164655.63
2022-08-25T16:06:22.048Z,164631.31
2022-08-25T16:08:49.491Z,164609.72
2022-08-25T16:11:22.727Z,164593.53
2022-08-25T16:13:51.723Z,164567.88
2022-08-25T16:16:21.081Z,164561.13
2022-08-25T16:18:48.852Z,164542.25
2022-08-25T16:21:21.046Z,164535.50
2022-08-25T16:23:48.994Z,164524.66
2022-08-25T16:26:17.262Z,164504.38
2022-08-25T16:28:45.360Z,164496.28
2022-08-25T16:31:15.132Z,164473.34
2022-08-25T16:33:44.698Z,164453.09
2022-08-25T16:36:21.559Z,164449.00
2022-08-25T16:38:50.300Z,164412.56
2022-08-25T16:41:24.919Z,164400.47
2022-08-25T16:43:52.606Z,164382.88
2022-08-25T16:46:21.716Z,164349.09
2022-08-25T16:48:51.412Z,164330.22
2022-08-25T16:51:22.715Z,164296.47
2022-08-25T16:54:18.553Z,164258.72
2022-08-25T16:56:54.694Z,164223.63
2022-08-25T16:59:23.438Z,164202.03
2022-08-25T17:01:51.382Z,164172.31
2022-08-25T17:04:18.878Z,164144.00
2022-08-25T17:06:49.334Z,164110.25
2022-08-25T17:09:23.925Z,164100.81
2022-08-25T17:11:54.567Z,164064.34
2022-08-25T17:14:22.418Z,164031.97
2022-08-25T17:16:54.822Z,163979.41
2022-08-25T17:19:23.988Z,163949.69
2022-08-25T17:21:52.411Z,163890.38
2022-08-25T17:24:21.050Z,163835.03
2022-08-25T17:26:51.860Z,163835.03
2022-08-25T17:29:19.410Z,163767.63
2022-08-25T17:31:48.439Z,163751.47
2022-08-25T17:34:16.928Z,163717.75
2022-08-25T17:36:48.677Z,163675.91
2022-08-25T17:39:18.466Z,163632.78
2022-08-25T17:41:46.233Z,163593.69
2022-08-25T17:44:14.014Z,163547.91
2022-08-25T17:46:47.607Z,163506.06
2022-08-25T17:49:17.143Z,163448.13
2022-08-25T17:51:45.097Z,163371.34
2022-08-25T17:54:13.146Z,163353.84
2022-08-25T17:56:41.307Z,163247.41
2022-08-25T17:59:09.279Z,163197.56
2022-08-25T18:01:40.140Z,163138.25
2022-08-25T18:04:14.280Z,163058.81
2022-08-25T18:06:46.553Z,162965.91
2022-08-25T18:09:15.274Z,162889.19
2022-08-25T18:11:42.891Z,162835.38
2022-08-25T18:14:11.552Z,162812.47
2022-08-25T18:16:39.302Z,162800.41
2022-08-25T18:19:09.868Z,162773.44
2022-08-25T18:21:37.927Z,162726.31
2022-08-25T18:24:06.795Z,162723.66
2022-08-25T18:26:35.134Z,162686.00
2022-08-25T18:29:03.110Z,162659.09
2022-08-25T18:31:31.183Z,162638.91
2022-08-25T18:33:59.699Z,162599.94
2022-08-25T18:36:27.474Z,162571.63
2022-08-25T18:39:14.131Z,162536.66
2022-08-25T18:41:42.796Z,162501.69
2022-08-25T18:44:12.681Z,162454.63
2022-08-25T18:46:45.438Z,162434.44
2022-08-25T18:49:16.005Z,162411.59
2022-08-25T18:51:44.893Z,162380.66
2022-08-25T18:54:22.816Z,162377.94
2022-08-25T18:56:54.811Z,162360.47
2022-08-25T18:59:23.775Z,162337.63
2022-08-25T19:01:53.069Z,162308.03
2022-08-25T19:04:20.690Z,162242.19
2022-08-25T19:06:56.318Z,162227.41
2022-08-25T19:09:23.721Z,162226.06
2022-08-25T19:11:52.907Z,162223.34
2022-08-25T19:14:22.352Z,162227.41
2022-08-25T19:16:51.908Z,162222.00
2022-08-25T19:19:20.273Z,162219.34
2022-08-25T19:21:48.430Z,162208.56
2022-08-25T19:24:18.609Z,162197.84
2022-08-25T19:26:46.259Z,162199.19
2022-08-25T19:29:15.946Z,162173.59
2022-08-25T19:31:46.974Z,162162.84
2022-08-25T19:34:20.827Z,162160.19
2022-08-25T19:36:48.941Z,162109.09
2022-08-25T19:39:16.764Z,162125.25
2022-08-25T19:41:45.598Z,162115.81
2022-08-25T19:44:13.674Z,162079.53
2022-08-25T19:46:43.384Z,162075.53
2022-08-25T19:49:14.626Z,162076.88
2022-08-25T19:51:50.627Z,162066.09
2022-08-25T19:54:27.459Z,162054.06
2022-08-25T19:56:55.804Z,162040.63
2022-08-25T19:59:25.824Z,162031.19
2022-08-25T20:01:54.017Z,162017.75
2022-08-25T20:04:24.149Z,161985.53
2022-08-25T20:06:55.436Z,161982.88
2022-08-25T20:09:39.545Z,161964.03
2022-08-25T20:12:12.022Z,161943.84
2022-08-25T20:14:40.030Z,161921.03
2022-08-25T20:17:23.586Z,161916.97
2022-08-25T20:19:55.494Z,161892.81
2022-08-25T20:22:26.385Z,161867.28
2022-08-25T20:24:58.186Z,161825.66
2022-08-25T20:27:35.548Z,161824.31
2022-08-25T20:30:07.141Z,161808.22
2022-08-25T20:32:36.053Z,161792.13
2022-08-25T20:35:06.006Z,161767.94
2022-08-25T20:37:36.761Z,161767.94
2022-08-25T20:40:05.498Z,161762.53
2022-08-25T20:42:33.248Z,161695.41
2022-08-25T20:45:01.014Z,161706.16
2022-08-25T20:47:28.872Z,161700.78
2022-08-25T20:50:00.401Z,161676.59
2022-08-25T20:52:31.277Z,161626.94
2022-08-25T20:54:58.632Z,161594.75
2022-08-25T20:57:26.591Z,161577.28
2022-08-25T20:59:57.646Z,161578.66
2022-08-25T21:02:26.294Z,161567.91
2022-08-25T21:04:54.553Z,161558.53
2022-08-25T21:07:25.847Z,161538.38
2022-08-25T21:09:53.668Z,161531.69
2022-08-25T21:12:21.149Z,161518.25
2022-08-25T21:14:49.213Z,161504.84
2022-08-25T21:17:19.245Z,161506.16
2022-08-25T21:22:16.766Z,161494.13
2022-08-25T21:24:45.146Z,161490.09
2022-08-25T21:27:12.748Z,161484.66
2022-08-25T21:29:54.409Z,161468.56
2022-08-25T21:32:24.193Z,161453.81
2022-08-25T21:34:54.098Z,161445.78
2022-08-25T21:37:22.153Z,161429.69
2022-08-25T21:39:50.389Z,161413.56
2022-08-25T21:42:20.412Z,161410.88
2022-08-25T21:44:50.681Z,161398.81
2022-08-25T21:47:20.981Z,161359.94
2022-08-25T21:49:49.993Z,161337.09
2022-08-25T21:52:18.308Z,161329.03
2022-08-25T21:54:46.128Z,161329.03
2022-08-25T21:57:13.949Z,161310.31
2022-08-25T21:59:43.449Z,161302.25
2022-08-25T22:02:13.360Z,161295.56
2022-08-25T22:04:42.860Z,161287.47
2022-08-25T22:07:11.169Z,161274.09
2022-08-25T22:09:40.183Z,161262.03
2022-08-25T22:12:08.370Z,161255.31
2022-08-25T22:14:36.984Z,161248.59
2022-08-25T22:17:06.982Z,161244.56
2022-08-25T22:19:37.030Z,161232.47
2022-08-25T22:22:06.916Z,161200.28
2022-08-25T22:24:34.327Z,161180.16
2022-08-25T22:27:02.521Z,161169.47
2022-08-25T22:29:30.646Z,161166.75
2022-08-25T22:31:59.975Z,161153.34
2022-08-25T22:34:34.634Z,161145.28
2022-08-25T22:37:04.061Z,161129.22
2022-08-25T22:39:34.433Z,161111.81
2022-08-25T22:42:03.398Z,161095.69
2022-08-25T22:44:30.990Z,161097.09
2022-08-25T22:46:58.657Z,161080.97
2022-08-25T22:49:28.774Z,161068.94
2022-08-25T22:51:56.343Z,161036.75
2022-08-25T22:54:25.722Z,161016.63
2022-08-25T22:56:53.648Z,161003.22
2022-08-25T22:59:22.196Z,160996.53
2022-08-25T23:01:52.389Z,160989.81
2022-08-25T23:04:20.179Z,160984.50
2022-08-25T23:06:47.530Z,160981.78
2022-08-25T23:09:15.113Z,160972.41
2022-08-25T23:11:43.399Z,160967.00
2022-08-25T23:14:11.518Z,160968.34
2022-08-25T23:16:43.282Z,160953.59
2022-08-25T23:19:13.867Z,160906.72
2022-08-25T23:22:02.122Z,160881.25
2022-08-25T23:24:30.981Z,160857.16
2022-08-25T23:27:00.963Z,160853.13
2022-08-25T23:29:29.243Z,160845.09
2022-08-25T23:31:57.991Z,160837.06
2022-08-25T23:34:26.868Z,160826.31
2022-08-25T23:36:56.722Z,160819.63
2022-08-25T23:39:24.328Z,160818.28
2022-08-25T23:41:52.514Z,160811.59
2022-08-25T23:44:21.459Z,160812.91
2022-08-25T23:46:49.601Z,160818.28
2022-08-25T23:49:19.419Z,160818.28
2022-08-25T23:51:50.253Z,160815.63
2022-08-25T23:54:20.637Z,160807.59
2022-08-25T23:56:51.879Z,160792.88
2022-08-25T23:59:23.967Z,160786.16
